sensor_id;sensor_type;location;lat;lon;timestamp;pressure;altitude;pressure_sealevel;temperature;humidity
76297;BME280;65104;52.994;6.552;2023-05-07T00:01:03;101682.53;;;12.58;100.00
76297;BME280;65104;52.994;6.552;2023-05-07T00:03:31;101673.81;;;12.53;100.00
76297;BME280;65104;52.994;6.552;2023-05-07T00:05:56;101682.41;;;12.54;100.00
76297;BME280;65104;52.994;6.552;2023-05-07T00:08:22;101685.78;;;12.50;100.00
76297;BME280;65104;52.994;6.552;2023-05-07T00:10:47;101690.22;;;12.57;100.00
76297;BME280;65104;52.994;6.552;2023-05-07T00:13:12;101694.34;;;12.49;100.00
76297;BME280;65104;52.994;6.552;2023-05-07T00:15:38;101694.19;;;12.44;100.00
76297;BME280;65104;52.994;6.552;2023-05-07T00:18:03;101693.38;;;12.45;100.00
76297;BME280;65104;52.994;6.552;2023-05-07T00:20:29;101697.66;;;12.45;100.00
76297;BME280;65104;52.994;6.552;2023-05-07T00:22:54;101693.31;;;12.42;100.00
76297;BME280;65104;52.994;6.552;2023-05-07T00:25:19;101690.75;;;12.42;100.00
76297;BME280;65104;52.994;6.552;2023-05-07T00:27:45;101693.28;;;12.40;100.00
76297;BME280;65104;52.994;6.552;2023-05-07T00:30:11;101687.28;;;12.42;100.00
76297;BME280;65104;52.994;6.552;2023-05-07T00:32:36;101679.38;;;12.35;100.00
76297;BME280;65104;52.994;6.552;2023-05-07T00:35:03;101694.06;;;12.38;100.00
76297;BME280;65104;52.994;6.552;2023-05-07T00:37:28;101696.34;;;12.27;100.00
76297;BME280;65104;52.994;6.552;2023-05-07T00:39:54;101689.47;;;12.26;100.00
76297;BME280;65104;52.994;6.552;2023-05-07T00:42:20;101695.44;;;12.24;100.00
76297;BME280;65104;52.994;6.552;2023-05-07T00:44:46;101692.97;;;12.28;100.00
76297;BME280;65104;52.994;6.552;2023-05-07T00:47:11;101694.59;;;12.25;100.00
76297;BME280;65104;52.994;6.552;2023-05-07T00:49:39;101703.91;;;12.20;100.00
76297;BME280;65104;52.994;6.552;2023-05-07T00:52:07;101699.56;;;12.19;100.00
76297;BME280;65104;52.994;6.552;2023-05-07T00:54:34;101697.81;;;12.18;100.00
76297;BME280;65104;52.994;6.552;2023-05-07T00:57:00;101706.38;;;12.15;100.00
76297;BME280;65104;52.994;6.552;2023-05-07T00:59:27;101705.44;;;12.13;100.00
76297;BME280;65104;52.994;6.552;2023-05-07T01:01:52;101702.78;;;12.10;100.00
76297;BME280;65104;52.994;6.552;2023-05-07T01:04:18;101703.59;;;12.08;100.00
76297;BME280;65104;52.994;6.552;2023-05-07T01:06:44;101700.97;;;12.06;100.00
76297;BME280;65104;52.994;6.552;2023-05-07T01:09:12;101699.03;;;11.99;100.00
76297;BME280;65104;52.994;6.552;2023-05-07T01:11:38;101698.91;;;11.93;100.00
76297;BME280;65104;52.994;6.552;2023-05-07T01:14:04;101703.94;;;11.88;100.00
76297;BME280;65104;52.994;6.552;2023-05-07T01:16:30;101701.25;;;11.85;100.00
76297;BME280;65104;52.994;6.552;2023-05-07T01:18:56;101706.16;;;11.76;100.00
76297;BME280;65104;52.994;6.552;2023-05-07T01:21:25;101710.53;;;11.79;100.00
76297;BME280;65104;52.994;6.552;2023-05-07T01:23:52;101708.78;;;11.78;100.00
76297;BME280;65104;52.994;6.552;2023-05-07T01:26:18;101704.28;;;11.72;100.00
76297;BME280;65104;52.994;6.552;2023-05-07T01:28:45;101698.78;;;11.58;100.00
76297;BME280;65104;52.994;6.552;2023-05-07T01:31:12;101699.75;;;11.63;100.00
76297;BME280;65104;52.994;6.552;2023-05-07T01:33:40;101703.25;;;11.65;100.00
76297;BME280;65104;52.994;6.552;2023-05-07T01:36:08;101704.06;;;11.63;100.00
76297;BME280;65104;52.994;6.552;2023-05-07T01:38:37;101707.63;;;11.68;100.00
76297;BME280;65104;52.994;6.552;2023-05-07T01:41:04;101706.66;;;11.64;100.00
76297;BME280;65104;52.994;6.552;2023-05-07T01:43:30;101703.13;;;11.61;100.00
76297;BME280;65104;52.994;6.552;2023-05-07T01:45:57;101705.56;;;11.56;100.00
76297;BME280;65104;52.994;6.552;2023-05-07T01:48:22;101699.38;;;11.50;100.00
76297;BME280;65104;52.994;6.552;2023-05-07T01:50:49;101710.63;;;11.53;100.00
76297;BME280;65104;52.994;6.552;2023-05-07T01:53:15;101709.53;;;11.45;100.00
76297;BME280;65104;52.994;6.552;2023-05-07T01:55:40;101707.72;;;11.41;100.00
76297;BME280;65104;52.994;6.552;2023-05-07T01:58:06;101709.34;;;11.39;100.00
76297;BME280;65104;52.994;6.552;2023-05-07T02:00:31;101701.53;;;11.35;100.00
76297;BME280;65104;52.994;6.552;2023-05-07T02:02:57;101703.81;;;11.25;100.00
76297;BME280;65104;52.994;6.552;2023-05-07T02:05:23;101701.03;;;11.19;100.00
76297;BME280;65104;52.994;6.552;2023-05-07T02:07:49;101694.25;;;11.21;100.00
76297;BME280;65104;52.994;6.552;2023-05-07T02:10:14;101697.00;;;11.27;100.00
76297;BME280;65104;52.994;6.552;2023-05-07T02:12:39;101702.94;;;11.25;100.00
76297;BME280;65104;52.994;6.552;2023-05-07T02:15:05;101706.44;;;11.27;100.00
76297;BME280;65104;52.994;6.552;2023-05-07T02:17:31;101702.94;;;11.25;100.00
76297;BME280;65104;52.994;6.552;2023-05-07T02:19:58;101716.34;;;11.15;100.00
76297;BME280;65104;52.994;6.552;2023-05-07T02:22:23;101716.34;;;11.15;100.00
76297;BME280;65104;52.994;6.552;2023-05-07T02:24:49;101715.53;;;11.16;100.00
76297;BME280;65104;52.994;6.552;2023-05-07T02:27:14;101707.06;;;11.20;100.00
76297;BME280;65104;52.994;6.552;2023-05-07T02:29:40;101717.06;;;11.11;100.00
76297;BME280;65104;52.994;6.552;2023-05-07T02:32:05;101712.06;;;11.15;100.00
76297;BME280;65104;52.994;6.552;2023-05-07T02:34:30;101713.88;;;11.18;100.00
76297;BME280;65104;52.994;6.552;2023-05-07T02:36:56;101706.78;;;11.11;100.00
76297;BME280;65104;52.994;6.552;2023-05-07T02:39:21;101713.44;;;11.04;100.00
76297;BME280;65104;52.994;6.552;2023-05-07T02:41:47;101712.56;;;11.04;100.00
76297;BME280;65104;52.994;6.552;2023-05-07T02:44:12;101720.38;;;11.07;100.00
76297;BME280;65104;52.994;6.552;2023-05-07T02:46:37;101715.13;;;11.04;100.00
76297;BME280;65104;52.994;6.552;2023-05-07T02:49:03;101719.50;;;11.06;100.00
76297;BME280;65104;52.994;6.552;2023-05-07T02:51:30;101721.09;;;11.03;100.00
76297;BME280;65104;52.994;6.552;2023-05-07T02:53:55;101721.25;;;11.07;100.00
76297;BME280;65104;52.994;6.552;2023-05-07T02:56:21;101717.72;;;11.04;100.00
76297;BME280;65104;52.994;6.552;2023-05-07T02:58:47;101709.88;;;10.99;100.00
76297;BME280;65104;52.994;6.552;2023-05-07T03:01:12;101713.09;;;10.94;100.00
76297;BME280;65104;52.994;6.552;2023-05-07T03:03:39;101701.09;;;10.93;100.00
76297;BME280;65104;52.994;6.552;2023-05-07T03:06:05;101714.63;;;10.87;100.00
76297;BME280;65104;52.994;6.552;2023-05-07T03:08:32;101715.56;;;10.89;100.00
76297;BME280;65104;52.994;6.552;2023-05-07T03:10:57;101708.78;;;10.91;100.00
76297;BME280;65104;52.994;6.552;2023-05-07T03:13:23;101708.66;;;10.88;100.00
76297;BME280;65104;52.994;6.552;2023-05-07T03:15:48;101707.50;;;10.78;100.00
76297;BME280;65104;52.994;6.552;2023-05-07T03:18:13;101705.91;;;10.82;100.00
76297;BME280;65104;52.994;6.552;2023-05-07T03:20:39;101702.31;;;10.77;100.00
76297;BME280;65104;52.994;6.552;2023-05-07T03:23:04;101715.16;;;10.77;100.00
76297;BME280;65104;52.994;6.552;2023-05-07T03:25:32;101715.91;;;10.74;100.00
76297;BME280;65104;52.994;6.552;2023-05-07T03:27:57;101716.72;;;10.72;100.00
76297;BME280;65104;52.994;6.552;2023-05-07T03:30:23;101717.63;;;10.74;100.00
76297;BME280;65104;52.994;6.552;2023-05-07T03:32:48;101716.78;;;10.73;100.00
76297;BME280;65104;52.994;6.552;2023-05-07T03:35:14;101723.59;;;10.73;100.00
76297;BME280;65104;52.994;6.552;2023-05-07T03:37:40;101718.59;;;10.77;100.00
76297;BME280;65104;52.994;6.552;2023-05-07T03:40:06;101711.75;;;10.78;100.00
76297;BME280;65104;52.994;6.552;2023-05-07T03:42:31;101705.56;;;10.71;100.00
76297;BME280;65104;52.994;6.552;2023-05-07T03:44:57;101715.72;;;10.68;100.00
76297;BME280;65104;52.994;6.552;2023-05-07T03:47:22;101725.31;;;10.72;100.00
76297;BME280;65104;52.994;6.552;2023-05-07T03:49:48;101717.53;;;10.71;100.00
76297;BME280;65104;52.994;6.552;2023-05-07T03:52:14;101714.09;;;10.70;100.00
76297;BME280;65104;52.994;6.552;2023-05-07T03:54:39;101723.31;;;10.65;100.00
76297;BME280;65104;52.994;6.552;2023-05-07T03:57:05;101719.03;;;10.64;100.00
76297;BME280;65104;52.994;6.552;2023-05-07T03:59:30;101726.13;;;10.71;100.00
76297;BME280;65104;52.994;6.552;2023-05-07T04:01:56;101742.19;;;10.66;100.00
76297;BME280;65104;52.994;6.552;2023-05-07T04:04:21;101737.91;;;10.66;100.00
76297;BME280;65104;52.994;6.552;2023-05-07T04:06:47;101733.72;;;10.68;100.00
76297;BME280;65104;52.994;6.552;2023-05-07T04:09:12;101737.69;;;10.59;100.00
76297;BME280;65104;52.994;6.552;2023-05-07T04:11:37;101739.31;;;10.57;100.00
76297;BME280;65104;52.994;6.552;2023-05-07T04:14:05;101737.72;;;10.60;100.00
76297;BME280;65104;52.994;6.552;2023-05-07T04:16:30;101735.97;;;10.59;100.00
76297;BME280;65104;52.994;6.552;2023-05-07T04:18:56;101741.00;;;10.56;100.00
76297;BME280;65104;52.994;6.552;2023-05-07T04:21:21;101746.13;;;10.56;100.00
76297;BME280;65104;52.994;6.552;2023-05-07T04:23:47;101741.00;;;10.56;100.00
76297;BME280;65104;52.994;6.552;2023-05-07T04:26:13;101739.06;;;10.49;100.00
76297;BME280;65104;52.994;6.552;2023-05-07T04:28:39;101739.28;;;10.55;100.00
76297;BME280;65104;52.994;6.552;2023-05-07T04:31:05;101735.75;;;10.51;100.00
76297;BME280;65104;52.994;6.552;2023-05-07T04:33:31;101735.78;;;10.53;100.00
76297;BME280;65104;52.994;6.552;2023-05-07T04:35:57;101739.28;;;10.55;100.00
76297;BME280;65104;52.994;6.552;2023-05-07T04:38:22;101735.84;;;10.55;100.00
76297;BME280;65104;52.994;6.552;2023-05-07T04:40:48;101736.97;;;10.63;100.00
76297;BME280;65104;52.994;6.552;2023-05-07T04:43:14;101731.78;;;10.61;100.00
76297;BME280;65104;52.994;6.552;2023-05-07T04:45:39;101728.28;;;10.59;100.00
76297;BME280;65104;52.994;6.552;2023-05-07T04:48:06;101732.72;;;10.63;100.00
76297;BME280;65104;52.994;6.552;2023-05-07T04:50:32;101731.66;;;10.58;100.00
76297;BME280;65104;52.994;6.552;2023-05-07T04:52:58;101739.38;;;10.58;100.00
76297;BME280;65104;52.994;6.552;2023-05-07T04:55:23;101747.31;;;10.66;100.00
76297;BME280;65104;52.994;6.552;2023-05-07T04:58:07;101752.38;;;10.63;100.00
76297;BME280;65104;52.994;6.552;2023-05-07T05:00:32;101753.84;;;10.56;100.00
76297;BME280;65104;52.994;6.552;2023-05-07T05:02:58;101759.41;;;10.68;100.00
76297;BME280;65104;52.994;6.552;2023-05-07T05:05:23;101760.91;;;10.62;100.00
76297;BME280;65104;52.994;6.552;2023-05-07T05:07:49;101760.84;;;10.60;100.00
76297;BME280;65104;52.994;6.552;2023-05-07T05:10:14;101765.34;;;10.67;100.00
76297;BME280;65104;52.994;6.552;2023-05-07T05:12:41;101770.41;;;10.64;100.00
76297;BME280;65104;52.994;6.552;2023-05-07T05:15:07;101773.06;;;10.67;100.00
76297;BME280;65104;52.994;6.552;2023-05-07T05:17:32;101767.88;;;10.66;100.00
76297;BME280;65104;52.994;6.552;2023-05-07T05:20:00;101774.00;;;10.69;100.00
76297;BME280;65104;52.994;6.552;2023-05-07T05:22:25;101778.44;;;10.73;100.00
76297;BME280;65104;52.994;6.552;2023-05-07T05:24:50;101777.56;;;10.73;100.00
76297;BME280;65104;52.994;6.552;2023-05-07T05:27:16;101772.34;;;10.71;100.00
76297;BME280;65104;52.994;6.552;2023-05-07T05:29:41;101773.31;;;10.75;100.00
76297;BME280;65104;52.994;6.552;2023-05-07T05:32:07;101771.53;;;10.72;100.00
76297;BME280;65104;52.994;6.552;2023-05-07T05:34:32;101766.22;;;10.68;100.00
76297;BME280;65104;52.994;6.552;2023-05-07T05:36:59;101759.56;;;10.73;100.00
76297;BME280;65104;52.994;6.552;2023-05-07T05:39:24;101763.91;;;10.75;100.00
76297;BME280;65104;52.994;6.552;2023-05-07T05:41:49;101761.25;;;10.72;100.00
76297;BME280;65104;52.994;6.552;2023-05-07T05:44:15;101765.66;;;10.76;100.00
76297;BME280;65104;52.994;6.552;2023-05-07T05:46:40;101764.72;;;10.74;100.00
76297;BME280;65104;52.994;6.552;2023-05-07T05:49:06;101769.88;;;10.74;100.00
76297;BME280;65104;52.994;6.552;2023-05-07T05:51:32;101776.88;;;10.78;100.00
76297;BME280;65104;52.994;6.552;2023-05-07T05:53:57;101774.53;;;10.86;100.00
76297;BME280;65104;52.994;6.552;2023-05-07T05:56:22;101776.16;;;10.82;100.00
76297;BME280;65104;52.994;6.552;2023-05-07T05:58:48;101779.63;;;10.84;100.00
76297;BME280;65104;52.994;6.552;2023-05-07T06:01:13;101789.13;;;10.87;100.00
76297;BME280;65104;52.994;6.552;2023-05-07T06:03:38;101782.34;;;10.89;100.00
76297;BME280;65104;52.994;6.552;2023-05-07T06:06:04;101784.88;;;10.87;100.00
76297;BME280;65104;52.994;6.552;2023-05-07T06:08:29;101788.44;;;10.93;100.00
76297;BME280;65104;52.994;6.552;2023-05-07T06:10:55;101782.59;;;10.97;100.00
76297;BME280;65104;52.994;6.552;2023-05-07T06:13:21;101788.84;;;11.05;100.00
76297;BME280;65104;52.994;6.552;2023-05-07T06:15:46;101787.28;;;11.10;100.00
76297;BME280;65104;52.994;6.552;2023-05-07T06:18:11;101789.03;;;11.11;100.00
76297;BME280;65104;52.994;6.552;2023-05-07T06:20:37;101787.22;;;11.07;100.00
76297;BME280;65104;52.994;6.552;2023-05-07T06:23:02;101792.81;;;10.95;100.00
76297;BME280;65104;52.994;6.552;2023-05-07T06:25:27;101787.94;;;11.03;100.00
76297;BME280;65104;52.994;6.552;2023-05-07T06:27:53;101798.44;;;11.10;100.00
76297;BME280;65104;52.994;6.552;2023-05-07T06:30:18;101795.06;;;11.11;100.00
76297;BME280;65104;52.994;6.552;2023-05-07T06:32:44;101797.00;;;11.18;100.00
76297;BME280;65104;52.994;6.552;2023-05-07T06:35:09;101791.13;;;11.22;100.00
76297;BME280;65104;52.994;6.552;2023-05-07T06:37:34;101797.16;;;11.23;100.00
76297;BME280;65104;52.994;6.552;2023-05-07T06:40:00;101798.06;;;11.25;100.00
76297;BME280;65104;52.994;6.552;2023-05-07T06:42:25;101808.06;;;11.16;100.00
76297;BME280;65104;52.994;6.552;2023-05-07T06:44:52;101804.69;;;11.17;100.00
76297;BME280;65104;52.994;6.552;2023-05-07T06:47:17;101807.25;;;11.17;100.00
76297;BME280;65104;52.994;6.552;2023-05-07T06:49:42;101816.78;;;11.21;100.00
76297;BME280;65104;52.994;6.552;2023-05-07T06:52:08;101810.00;;;11.23;100.00
76297;BME280;65104;52.994;6.552;2023-05-07T06:54:33;101820.41;;;11.26;100.00
76297;BME280;65104;52.994;6.552;2023-05-07T06:56:59;101822.16;;;11.27;100.00
76297;BME280;65104;52.994;6.552;2023-05-07T06:59:24;101827.53;;;11.35;100.00
76297;BME280;65104;52.994;6.552;2023-05-07T07:01:49;101826.72;;;11.37;100.00
76297;BME280;65104;52.994;6.552;2023-05-07T07:04:15;101824.16;;;11.37;100.00
76297;BME280;65104;52.994;6.552;2023-05-07T07:06:40;101826.19;;;11.47;100.00
76297;BME280;65104;52.994;6.552;2023-05-07T07:09:06;101828.97;;;11.53;100.00
76297;BME280;65104;52.994;6.552;2023-05-07T07:11:31;101824.16;;;11.65;100.00
76297;BME280;65104;52.994;6.552;2023-05-07T07:13:56;101830.34;;;11.71;100.00
76297;BME280;65104;52.994;6.552;2023-05-07T07:16:22;101837.25;;;11.72;100.00
76297;BME280;65104;52.994;6.552;2023-05-07T07:18:47;101836.38;;;11.73;100.00
76297;BME280;65104;52.994;6.552;2023-05-07T07:21:12;101827.09;;;11.76;100.00
76297;BME280;65104;52.994;6.552;2023-05-07T07:23:38;101837.25;;;11.72;100.00
76297;BME280;65104;52.994;6.552;2023-05-07T07:26:03;101830.53;;;11.77;100.00
76297;BME280;65104;52.994;6.552;2023-05-07T07:28:29;101843.50;;;11.80;100.00
76297;BME280;65104;52.994;6.552;2023-05-07T07:30:54;101835.00;;;11.82;100.00
76297;BME280;65104;52.994;6.552;2023-05-07T07:33:19;101829.06;;;11.85;100.00
76297;BME280;65104;52.994;6.552;2023-05-07T07:35:45;101826.59;;;11.88;100.00
76297;BME280;65104;52.994;6.552;2023-05-07T07:38:10;101834.03;;;12.09;100.00
76297;BME280;65104;52.994;6.552;2023-05-07T07:40:36;101830.78;;;12.14;100.00
76297;BME280;65104;52.994;6.552;2023-05-07T07:43:01;101840.25;;;12.15;100.00
76297;BME280;65104;52.994;6.552;2023-05-07T07:45:27;101841.38;;;12.25;100.00
76297;BME280;65104;52.994;6.552;2023-05-07T07:47:52;101842.56;;;12.37;100.00
76297;BME280;65104;52.994;6.552;2023-05-07T07:50:18;101846.91;;;12.38;100.00
76297;BME280;65104;52.994;6.552;2023-05-07T07:52:43;101844.47;;;12.45;100.00
76297;BME280;65104;52.994;6.552;2023-05-07T07:55:09;101843.75;;;12.49;100.00
76297;BME280;65104;52.994;6.552;2023-05-07T07:57:34;101840.44;;;12.54;100.00
76297;BME280;65104;52.994;6.552;2023-05-07T08:00:00;101833.06;;;12.66;100.00
76297;BME280;65104;52.994;6.552;2023-05-07T08:02:26;101836.66;;;12.73;100.00
76297;BME280;65104;52.994;6.552;2023-05-07T08:04:51;101844.19;;;12.65;99.73
76297;BME280;65104;52.994;6.552;2023-05-07T08:07:16;101833.94;;;12.67;99.65
76297;BME280;65104;52.994;6.552;2023-05-07T08:09:45;101838.06;;;12.62;99.20
76297;BME280;65104;52.994;6.552;2023-05-07T08:12:11;101838.31;;;12.71;96.98
76297;BME280;65104;52.994;6.552;2023-05-07T08:14:36;101844.34;;;13.04;98.90
76297;BME280;65104;52.994;6.552;2023-05-07T08:17:02;101842.03;;;13.13;96.54
76297;BME280;65104;52.994;6.552;2023-05-07T08:19:28;101846.97;;;13.07;96.39
76297;BME280;65104;52.994;6.552;2023-05-07T08:21:53;101846.41;;;13.18;96.18
76297;BME280;65104;52.994;6.552;2023-05-07T08:24:19;101848.22;;;13.22;95.13
76297;BME280;65104;52.994;6.552;2023-05-07T08:26:44;101847.41;;;13.24;94.88
76297;BME280;65104;52.994;6.552;2023-05-07T08:29:10;101840.53;;;13.23;94.01
76297;BME280;65104;52.994;6.552;2023-05-07T08:31:36;101842.44;;;13.32;95.50
76297;BME280;65104;52.994;6.552;2023-05-07T08:34:02;101843.31;;;13.32;94.73
76297;BME280;65104;52.994;6.552;2023-05-07T08:36:28;101849.88;;;13.56;93.62
76297;BME280;65104;52.994;6.552;2023-05-07T08:38:53;101850.84;;;13.61;95.33
76297;BME280;65104;52.994;6.552;2023-05-07T08:41:20;101845.59;;;13.56;92.61
76297;BME280;65104;52.994;6.552;2023-05-07T08:43:48;101850.72;;;13.55;93.31
76297;BME280;65104;52.994;6.552;2023-05-07T08:46:21;101846.19;;;13.83;91.78
76297;BME280;65104;52.994;6.552;2023-05-07T08:48:51;101855.88;;;13.94;91.81
76297;BME280;65104;52.994;6.552;2023-05-07T08:51:18;101848.19;;;13.97;92.33
76297;BME280;65104;52.994;6.552;2023-05-07T08:53:45;101848.97;;;13.93;92.37
76297;BME280;65104;52.994;6.552;2023-05-07T08:56:11;101846.28;;;13.86;90.05
76297;BME280;65104;52.994;6.552;2023-05-07T08:58:36;101854.97;;;13.92;90.93
76297;BME280;65104;52.994;6.552;2023-05-07T09:01:15;101848.88;;;14.32;90.15
76297;BME280;65104;52.994;6.552;2023-05-07T09:03:44;101847.75;;;14.17;89.62
76297;BME280;65104;52.994;6.552;2023-05-07T09:06:10;101845.94;;;14.55;89.70
76297;BME280;65104;52.994;6.552;2023-05-07T09:08:36;101842.88;;;15.30;88.19
76297;BME280;65104;52.994;6.552;2023-05-07T09:11:04;101835.97;;;15.87;85.78
76297;BME280;65104;52.994;6.552;2023-05-07T09:13:30;101845.53;;;15.94;84.08
76297;BME280;65104;52.994;6.552;2023-05-07T09:15:58;101842.38;;;15.53;83.15
76297;BME280;65104;52.994;6.552;2023-05-07T09:18:24;101841.03;;;15.22;84.45
76297;BME280;65104;52.994;6.552;2023-05-07T09:20:50;101839.47;;;15.31;84.51
76297;BME280;65104;52.994;6.552;2023-05-07T09:23:16;101838.44;;;15.20;84.90
76297;BME280;65104;52.994;6.552;2023-05-07T09:25:41;101849.94;;;15.37;84.41
76297;BME280;65104;52.994;6.552;2023-05-07T09:28:06;101838.03;;;16.13;83.96
76297;BME280;65104;52.994;6.552;2023-05-07T09:30:33;101839.94;;;16.31;80.55
76297;BME280;65104;52.994;6.552;2023-05-07T09:33:00;101842.19;;;16.76;76.65
76297;BME280;65104;52.994;6.552;2023-05-07T09:35:26;101842.47;;;17.10;77.21
76297;BME280;65104;52.994;6.552;2023-05-07T09:37:58;101840.41;;;16.74;76.61
76297;BME280;65104;52.994;6.552;2023-05-07T09:40:26;101843.09;;;16.83;77.73
76297;BME280;65104;52.994;6.552;2023-05-07T09:42:53;101844.97;;;16.98;79.74
76297;BME280;65104;52.994;6.552;2023-05-07T09:45:28;101832.75;;;16.84;76.13
76297;BME280;65104;52.994;6.552;2023-05-07T09:47:55;101841.19;;;16.65;79.19
76297;BME280;65104;52.994;6.552;2023-05-07T09:50:26;101837.75;;;16.66;79.43
76297;BME280;65104;52.994;6.552;2023-05-07T09:52:53;101833.63;;;16.86;76.88
76297;BME280;65104;52.994;6.552;2023-05-07T09:55:19;101837.31;;;17.13;76.48
76297;BME280;65104;52.994;6.552;2023-05-07T09:57:45;101835.16;;;17.83;74.61
76297;BME280;65104;52.994;6.552;2023-05-07T10:00:12;101836.03;;;17.80;73.74
76297;BME280;65104;52.994;6.552;2023-05-07T10:02:39;101843.03;;;17.93;73.68
76297;BME280;65104;52.994;6.552;2023-05-07T10:05:12;101838.72;;;18.08;71.10
76297;BME280;65104;52.994;6.552;2023-05-07T10:07:39;101839.63;;;18.05;71.37
76297;BME280;65104;52.994;6.552;2023-05-07T10:10:06;101834.41;;;18.08;70.78
76297;BME280;65104;52.994;6.552;2023-05-07T10:12:32;101839.56;;;17.93;71.18
76297;BME280;65104;52.994;6.552;2023-05-07T10:15:05;101836.22;;;18.35;71.00
76297;BME280;65104;52.994;6.552;2023-05-07T10:17:31;101843.28;;;18.59;71.45
76297;BME280;65104;52.994;6.552;2023-05-07T10:19:57;101844.06;;;18.44;71.40
76297;BME280;65104;52.994;6.552;2023-05-07T10:22:24;101838.06;;;18.71;73.23
76297;BME280;65104;52.994;6.552;2023-05-07T10:24:52;101838.84;;;18.32;70.51
76297;BME280;65104;52.994;6.552;2023-05-07T10:27:20;101850.09;;;18.23;69.99
76297;BME280;65104;52.994;6.552;2023-05-07T10:29:50;101849.38;;;18.84;71.59
76297;BME280;65104;52.994;6.552;2023-05-07T10:32:40;101841.56;;;18.85;69.59
76297;BME280;65104;52.994;6.552;2023-05-07T10:35:16;101841.56;;;19.32;68.79
76297;BME280;65104;52.994;6.552;2023-05-07T10:37:44;101846.69;;;19.73;66.78
76297;BME280;65104;52.994;6.552;2023-05-07T10:40:11;101844.09;;;19.72;65.16
76297;BME280;65104;52.994;6.552;2023-05-07T10:42:37;101845.88;;;19.07;62.50
76297;BME280;65104;52.994;6.552;2023-05-07T10:45:15;101847.50;;;19.94;65.15
76297;BME280;65104;52.994;6.552;2023-05-07T10:48:07;101841.53;;;19.58;65.81
76297;BME280;65104;52.994;6.552;2023-05-07T10:50:33;101840.63;;;19.76;64.29
76297;BME280;65104;52.994;6.552;2023-05-07T10:55:48;101847.44;;;20.10;62.15
76297;BME280;65104;52.994;6.552;2023-05-07T10:58:27;101837.00;;;20.07;62.22
76297;BME280;65104;52.994;6.552;2023-05-07T11:01:00;101836.84;;;20.44;59.88
76297;BME280;65104;52.994;6.552;2023-05-07T11:03:27;101835.66;;;20.86;61.36
76297;BME280;65104;52.994;6.552;2023-05-07T11:06:28;101831.66;;;20.32;62.74
76297;BME280;65104;52.994;6.552;2023-05-07T11:08:56;101833.25;;;20.58;59.71
76297;BME280;65104;52.994;6.552;2023-05-07T11:11:47;101835.66;;;20.89;60.55
76297;BME280;65104;52.994;6.552;2023-05-07T11:17:11;101834.28;;;20.27;60.27
76297;BME280;65104;52.994;6.552;2023-05-07T11:19:49;101836.06;;;20.22;61.20
76297;BME280;65104;52.994;6.552;2023-05-07T11:24:56;101820.25;;;20.51;61.38
76297;BME280;65104;52.994;6.552;2023-05-07T11:27:28;101832.59;;;20.21;59.72
76297;BME280;65104;52.994;6.552;2023-05-07T11:29:54;101836.00;;;20.31;60.52
76297;BME280;65104;52.994;6.552;2023-05-07T11:32:27;101834.38;;;20.09;61.70
76297;BME280;65104;52.994;6.552;2023-05-07T11:34:56;101841.41;;;19.89;62.22
76297;BME280;65104;52.994;6.552;2023-05-07T11:37:23;101833.72;;;19.58;61.32
76297;BME280;65104;52.994;6.552;2023-05-07T11:39:49;101839.75;;;19.75;62.13
76297;BME280;65104;52.994;6.552;2023-05-07T11:42:28;101840.44;;;20.14;62.22
76297;BME280;65104;52.994;6.552;2023-05-07T11:44:54;101843.06;;;20.09;62.33
76297;BME280;65104;52.994;6.552;2023-05-07T11:47:20;101847.31;;;20.35;63.22
76297;BME280;65104;52.994;6.552;2023-05-07T11:49:49;101844.91;;;19.91;61.70
76297;BME280;65104;52.994;6.552;2023-05-07T11:52:16;101855.22;;;20.15;64.33
76297;BME280;65104;52.994;6.552;2023-05-07T11:54:48;101850.66;;;20.59;61.08
76297;BME280;65104;52.994;6.552;2023-05-07T11:57:14;101844.50;;;20.68;59.13
76297;BME280;65104;52.994;6.552;2023-05-07T11:59:40;101860.31;;;20.47;59.96
76297;BME280;65104;52.994;6.552;2023-05-07T12:02:06;101847.97;;;20.69;59.64
76297;BME280;65104;52.994;6.552;2023-05-07T12:04:32;101856.91;;;20.25;61.76
76297;BME280;65104;52.994;6.552;2023-05-07T12:06:57;101860.31;;;20.45;61.41
76297;BME280;65104;52.994;6.552;2023-05-07T12:09:23;101848.41;;;21.28;56.24
76297;BME280;65104;52.994;6.552;2023-05-07T12:11:48;101857.38;;;21.84;55.26
76297;BME280;65104;52.994;6.552;2023-05-07T12:14:14;101842.53;;;21.88;56.93
76297;BME280;65104;52.994;6.552;2023-05-07T12:16:43;101863.50;;;20.87;58.32
76297;BME280;65104;52.994;6.552;2023-05-07T12:19:09;101853.84;;;20.96;58.62
76297;BME280;65104;52.994;6.552;2023-05-07T12:21:37;101853.25;;;20.66;57.69
76297;BME280;65104;52.994;6.552;2023-05-07T12:24:04;101851.16;;;21.07;58.12
76297;BME280;65104;52.994;6.552;2023-05-07T12:26:29;101842.53;;;20.97;58.29
76297;BME280;65104;52.994;6.552;2023-05-07T12:28:54;101845.22;;;20.88;57.24
76297;BME280;65104;52.994;6.552;2023-05-07T12:31:20;101851.38;;;20.84;59.24
76297;BME280;65104;52.994;6.552;2023-05-07T12:33:45;101837.69;;;21.54;59.66
76297;BME280;65104;52.994;6.552;2023-05-07T12:36:12;101833.34;;;21.52;57.43
76297;BME280;65104;52.994;6.552;2023-05-07T12:38:38;101839.91;;;21.01;58.71
76297;BME280;65104;52.994;6.552;2023-05-07T12:41:06;101845.53;;;20.44;59.22
76297;BME280;65104;52.994;6.552;2023-05-07T12:43:32;101840.66;;;21.13;57.30
76297;BME280;65104;52.994;6.552;2023-05-07T12:46:00;101838.53;;;22.90;53.88
76297;BME280;65104;52.994;6.552;2023-05-07T12:48:26;101838.66;;;23.33;50.09